Progreso Lakes, Texas
Current Conditions -  °F | °C
As of 9:55 AM on Friday 24 Oct 2014 (Local Time) from KT65 Reporting Station
Clear Clear  
Wind Chill: 74°   Ceiling: Unl
Heat Index: 74°   Visibility: 7mi
Dew Point: 64°   Wind: 3mph
Humidity: 72%   Direction: 360°N
Pressure: 30.15"   Gusts: NA
Location:  26.1701°N, 97.9943°W
Report Text: KT65 241455Z AUTO 36003KT 7SM CLR 23/18 A3015 RMK AO2 T02330180
Loading
Personal Weather Stations






























Interactive Weather Map
Tropical Storm Tracking
New forecast layout! Learn more

10-Day Weather Forecast

Advertisements
Track Severe Weather on mobile